createdAt,value
2018-12-16T00:04:14.879Z,100718.57
2018-12-16T00:06:44.502Z,100713.42
2018-12-16T00:09:14.303Z,100713.86
2018-12-16T00:11:44.061Z,100707.00
2018-12-16T00:14:13.881Z,100704.42
2018-12-16T00:16:46.019Z,100709.12
2018-12-16T00:19:16.967Z,100712.56
2018-12-16T00:21:46.976Z,100719.44
2018-12-16T00:24:16.652Z,100718.98
2018-12-16T00:27:03.530Z,100716.02
2018-12-16T00:29:33.152Z,100733.97
2018-12-16T00:32:02.940Z,100731.41
2018-12-16T00:34:32.528Z,100734.39
2018-12-16T00:37:02.224Z,100735.21
2018-12-16T00:39:31.826Z,100726.64
2018-12-16T00:42:01.464Z,100727.93
2018-12-16T00:44:32.039Z,100730.48
2018-12-16T00:47:01.642Z,100730.06
2018-12-16T00:49:31.396Z,100724.47
2018-12-16T00:52:01.266Z,100718.04
2018-12-16T00:54:32.412Z,100717.20
2018-12-16T00:57:02.006Z,100719.32
2018-12-16T00:59:31.698Z,100716.73
2018-12-16T01:02:01.336Z,100723.14
2018-12-16T01:04:31.022Z,100717.16
2018-12-16T01:07:00.991Z,100718.02
2018-12-16T01:09:30.631Z,100712.02
2018-12-16T01:12:00.979Z,100711.59
2018-12-16T01:14:30.663Z,100712.03
2018-12-16T01:17:00.427Z,100713.74
2018-12-16T01:19:35.983Z,100697.48
2018-12-16T01:22:05.608Z,100697.04
2018-12-16T01:24:35.388Z,100694.03
2018-12-16T01:27:05.716Z,100690.18
2018-12-16T01:29:35.307Z,100683.31
2018-12-16T01:32:04.964Z,100677.72
2018-12-16T01:34:34.624Z,100675.15
2018-12-16T01:37:04.287Z,100679.42
2018-12-16T01:39:33.981Z,100668.29
2018-12-16T01:42:03.869Z,100664.03
2018-12-16T01:44:33.600Z,100652.88
2018-12-16T01:47:03.324Z,100648.19
2018-12-16T01:49:32.897Z,100649.00
2018-12-16T01:52:02.583Z,100637.45
2018-12-16T01:54:32.243Z,100640.06
2018-12-16T01:57:02.639Z,100630.21
2018-12-16T01:59:34.441Z,100614.37
2018-12-16T02:02:04.852Z,100606.70
2018-12-16T02:04:35.677Z,100617.02
2018-12-16T02:07:05.424Z,100624.25
2018-12-16T02:09:35.148Z,100619.51
2018-12-16T02:12:04.892Z,100613.50
2018-12-16T02:14:35.206Z,100617.35
2018-12-16T02:17:04.882Z,100598.48
2018-12-16T02:19:34.671Z,100602.76
2018-12-16T02:22:04.300Z,100595.02
2018-12-16T02:24:34.314Z,100577.97
2018-12-16T02:27:03.902Z,100575.77
2018-12-16T02:29:33.673Z,100561.67
2018-12-16T02:32:03.605Z,100562.50
2018-12-16T02:34:33.231Z,100565.05
2018-12-16T02:37:02.827Z,100556.47
2018-12-16T02:39:33.714Z,100547.45
2018-12-16T02:42:03.349Z,100553.88
2018-12-16T02:44:33.143Z,100550.03
2018-12-16T02:47:02.778Z,100535.02
2018-12-16T02:49:32.473Z,100522.56
2018-12-16T02:52:02.083Z,100515.76
2018-12-16T02:54:31.700Z,100513.17
2018-12-16T02:57:01.333Z,100511.02
2018-12-16T02:59:30.951Z,100493.51
2018-12-16T03:02:02.968Z,100488.77
2018-12-16T03:04:32.590Z,100477.63
2018-12-16T03:07:02.180Z,100484.03
2018-12-16T03:09:31.793Z,100475.94
2018-12-16T03:12:02.465Z,100476.75
2018-12-16T03:14:32.182Z,100475.06
2018-12-16T03:17:02.581Z,100456.62
2018-12-16T03:22:34.459Z,100460.82
2018-12-16T03:25:04.388Z,100460.39
2018-12-16T03:27:34.028Z,100468.54
2018-12-16T03:30:04.905Z,100465.08
2018-12-16T03:32:34.520Z,100452.62
2018-12-16T03:35:09.004Z,100435.52
2018-12-16T03:37:38.885Z,100427.83
2018-12-16T03:40:13.113Z,100419.69
2018-12-16T03:42:48.966Z,100423.52
2018-12-16T03:45:18.955Z,100426.06
2018-12-16T03:47:48.771Z,100425.60
2018-12-16T03:50:18.435Z,100424.31
2018-12-16T03:52:48.277Z,100408.89
2018-12-16T03:55:18.507Z,100409.29
2018-12-16T03:57:50.885Z,100399.00
2018-12-16T04:00:21.659Z,100401.97
2018-12-16T04:02:53.912Z,100410.12
2018-12-16T04:05:26.389Z,100393.44
2018-12-16T04:07:55.953Z,100392.98
2018-12-16T04:10:25.731Z,100395.91
2018-12-16T04:12:57.162Z,100392.95
2018-12-16T04:15:31.108Z,100392.88
2018-12-16T04:18:00.758Z,100389.85
2018-12-16T04:20:30.350Z,100391.10
2018-12-16T04:22:59.965Z,100387.25
2018-12-16T04:25:29.750Z,100397.53
2018-12-16T04:27:59.606Z,100391.92
2018-12-16T04:30:29.235Z,100397.50
2018-12-16T04:32:59.177Z,100386.32
2018-12-16T04:35:28.828Z,100385.03
2018-12-16T04:37:58.704Z,100388.03
2018-12-16T04:40:28.341Z,100384.64
2018-12-16T04:42:58.011Z,100390.25
2018-12-16T04:45:27.612Z,100387.31
2018-12-16T04:47:57.361Z,100393.37
2018-12-16T04:50:27.418Z,100387.44
2018-12-16T04:52:57.116Z,100396.83
2018-12-16T04:55:26.744Z,100392.58
2018-12-16T04:57:56.529Z,100385.30
2018-12-16T05:00:26.197Z,100395.64
2018-12-16T05:02:57.524Z,100386.70
2018-12-16T05:05:28.413Z,100383.30
2018-12-16T05:07:58.351Z,100390.58
2018-12-16T05:10:31.303Z,100392.30
2018-12-16T05:13:00.937Z,100388.44
2018-12-16T05:15:35.056Z,100384.12
2018-12-16T05:18:12.313Z,100382.87
2018-12-16T05:20:42.021Z,100375.98
2018-12-16T05:23:11.718Z,100375.10
2018-12-16T05:25:41.335Z,100374.24
2018-12-16T05:28:11.234Z,100369.99
2018-12-16T05:30:40.879Z,100359.70
2018-12-16T05:33:10.580Z,100372.13
2018-12-16T05:35:40.226Z,100369.59
2018-12-16T05:38:12.196Z,100366.99
2018-12-16T05:40:41.949Z,100368.67
2018-12-16T05:43:11.646Z,100364.79
2018-12-16T05:45:41.375Z,100368.64
2018-12-16T05:48:11.039Z,100365.67
2018-12-16T05:50:40.752Z,100367.39
2018-12-16T05:53:10.574Z,100366.07
2018-12-16T05:55:40.208Z,100369.50
2018-12-16T05:58:10.251Z,100367.39
2018-12-16T06:00:40.255Z,100370.45
2018-12-16T06:03:09.857Z,100366.11
2018-12-16T06:05:39.486Z,100364.81
2018-12-16T06:08:09.114Z,100369.93
2018-12-16T06:10:38.719Z,100377.64
2018-12-16T06:13:08.383Z,100376.30
2018-12-16T06:15:38.091Z,100375.44
2018-12-16T06:18:07.710Z,100375.07
2018-12-16T06:20:37.328Z,100370.36
2018-12-16T06:23:08.231Z,100367.30
2018-12-16T06:25:37.971Z,100372.50
2018-12-16T06:28:07.657Z,100373.81
2018-12-16T06:30:37.780Z,100370.42
2018-12-16T06:33:07.421Z,100369.53
2018-12-16T06:35:37.055Z,100361.45
2018-12-16T06:38:06.711Z,100363.11
2018-12-16T06:40:36.382Z,100362.64
2018-12-16T06:43:06.210Z,100352.82
2018-12-16T06:45:37.834Z,100346.85
2018-12-16T06:48:07.519Z,100350.68
2018-12-16T06:50:37.116Z,100355.85
2018-12-16T06:53:06.950Z,100356.25
2018-12-16T06:55:43.092Z,100359.25
2018-12-16T06:58:08.550Z,100357.59
2018-12-16T07:00:38.168Z,100358.88
2018-12-16T07:03:11.773Z,100350.38
2018-12-16T07:05:41.401Z,100349.06
2018-12-16T07:08:11.003Z,100349.92
2018-12-16T07:10:41.671Z,100354.20
2018-12-16T07:13:12.452Z,100350.80
2018-12-16T07:15:42.088Z,100352.92
2018-12-16T07:18:12.766Z,100363.16
2018-12-16T07:20:42.372Z,100361.09
2018-12-16T07:23:12.039Z,100363.23
2018-12-16T07:25:41.693Z,100359.03
2018-12-16T07:28:11.344Z,100367.17
2018-12-16T07:30:41.231Z,100369.71
2018-12-16T07:33:10.920Z,100373.54
2018-12-16T07:35:42.453Z,100365.42
2018-12-16T07:38:12.175Z,100365.00
2018-12-16T07:40:42.853Z,100367.52
2018-12-16T07:43:12.501Z,100361.52
2018-12-16T07:45:47.536Z,100362.80
2018-12-16T07:48:17.502Z,100362.37
2018-12-16T07:50:47.411Z,100364.94
2018-12-16T07:53:17.094Z,100363.66
2018-12-16T07:55:47.894Z,100367.08
2018-12-16T07:58:18.321Z,100372.68
2018-12-16T08:00:49.193Z,100367.17
2018-12-16T08:03:20.474Z,100375.22
2018-12-16T08:05:50.197Z,100373.91
2018-12-16T08:08:20.953Z,100385.05
2018-12-16T08:10:51.390Z,100384.19
2018-12-16T08:13:21.109Z,100392.30
2018-12-16T08:15:50.812Z,100397.02
2018-12-16T08:18:21.395Z,100395.33
2018-12-16T08:20:51.021Z,100377.82
2018-12-16T08:23:24.177Z,100386.73
2018-12-16T08:25:53.871Z,100394.05
2018-12-16T08:28:24.513Z,100388.50
2018-12-16T08:30:54.174Z,100395.33
2018-12-16T08:33:26.096Z,100388.13
2018-12-16T08:35:55.735Z,100394.07
2018-12-16T08:38:25.435Z,100392.36
2018-12-16T08:41:02.396Z,100385.05
2018-12-16T08:43:32.138Z,100382.93
2018-12-16T08:46:01.809Z,100388.41
2018-12-16T08:48:33.434Z,100388.81
2018-12-16T08:51:03.238Z,100386.64
2018-12-16T08:56:30.028Z,100387.47
2018-12-16T08:58:59.652Z,100386.70
2018-12-16T09:01:31.767Z,100383.30
2018-12-16T09:04:01.811Z,100384.10
2018-12-16T09:06:35.960Z,100384.50
2018-12-16T09:09:08.328Z,100391.39
2018-12-16T09:11:39.486Z,100400.30
2018-12-16T09:14:09.080Z,100394.75
2018-12-16T09:16:38.664Z,100399.86
2018-12-16T09:19:08.363Z,100396.86
2018-12-16T09:21:38.973Z,100402.44
2018-12-16T09:24:14.991Z,100405.31
2018-12-16T09:26:44.610Z,100397.59
2018-12-16T09:29:14.501Z,100402.31
2018-12-16T09:31:44.096Z,100401.45
2018-12-16T09:34:14.017Z,100404.85
2018-12-16T09:36:48.665Z,100404.36
2018-12-16T09:39:24.901Z,100399.58
2018-12-16T09:42:01.520Z,100405.12
2018-12-16T09:44:31.858Z,100400.86
2018-12-16T09:47:02.773Z,100405.95
2018-12-16T09:49:32.402Z,100403.73
2018-12-16T09:52:12.768Z,100400.30
2018-12-16T09:54:44.610Z,100399.91
2018-12-16T09:57:16.598Z,100402.87
2018-12-16T09:59:49.104Z,100398.98
2018-12-16T10:02:18.729Z,100396.30
2018-12-16T10:04:50.343Z,100392.80
2018-12-16T10:07:20.089Z,100389.72
2018-12-16T10:09:53.487Z,100394.95
2018-12-16T10:12:23.200Z,100385.94
2018-12-16T10:14:56.386Z,100386.87
2018-12-16T10:17:26.362Z,100394.98
2018-12-16T10:19:56.039Z,100388.12
2018-12-16T10:22:25.701Z,100384.22
2018-12-16T10:24:57.789Z,100378.61
2018-12-16T10:27:29.327Z,100373.46
2018-12-16T10:30:03.402Z,100374.25
2018-12-16T10:32:34.374Z,100378.45
2018-12-16T10:35:04.063Z,100379.70
2018-12-16T10:37:33.748Z,100386.10
2018-12-16T10:40:03.580Z,100375.77
2018-12-16T10:42:34.074Z,100380.98
2018-12-16T10:47:52.750Z,100372.06
2018-12-16T10:50:24.300Z,100382.32
2018-12-16T10:52:54.362Z,100382.31
2018-12-16T10:55:25.669Z,100373.27
2018-12-16T10:57:56.658Z,100379.20
2018-12-16T11:00:32.555Z,100374.91
2018-12-16T11:03:03.328Z,100379.66
2018-12-16T11:05:34.666Z,100386.10
2018-12-16T11:10:49.282Z,100378.38
2018-12-16T11:13:19.247Z,100377.52
2018-12-16T11:15:50.264Z,100377.02
2018-12-16T11:18:21.467Z,100373.97
2018-12-16T11:20:52.245Z,100371.86
2018-12-16T11:23:25.451Z,100369.76
2018-12-16T11:25:56.416Z,100377.87
2018-12-16T11:28:26.053Z,100379.94
2018-12-16T11:30:56.286Z,100372.13
2018-12-16T11:33:25.989Z,100376.34
2018-12-16T11:36:00.625Z,100378.40
2018-12-16T11:38:31.879Z,100371.06
2018-12-16T11:41:04.823Z,100365.87
2018-12-16T11:43:34.476Z,100359.42
2018-12-16T11:46:04.127Z,100352.95
2018-12-16T11:48:33.754Z,100356.42
2018-12-16T11:51:03.426Z,100358.23
2018-12-16T11:53:34.996Z,100344.97
2018-12-16T11:56:04.773Z,100343.64
2018-12-16T11:58:34.359Z,100338.05
2018-12-16T12:01:06.531Z,100338.45
2018-12-16T12:03:37.111Z,100334.19
2018-12-16T12:06:09.718Z,100344.49
2018-12-16T12:08:46.139Z,100337.59
2018-12-16T12:11:16.999Z,100342.30
2018-12-16T12:13:48.241Z,100337.53
2018-12-16T12:16:20.347Z,100338.78
2018-12-16T12:18:59.618Z,100338.78
2018-12-16T12:21:30.969Z,100330.58
2018-12-16T12:24:03.761Z,100338.27
2018-12-16T12:26:38.182Z,100332.64
2018-12-16T12:29:09.820Z,100337.31
2018-12-16T12:31:41.188Z,100338.09
2018-12-16T12:34:12.095Z,100342.37
2018-12-16T12:36:43.075Z,100349.16
2018-12-16T12:39:18.672Z,100335.88
2018-12-16T12:41:49.873Z,100333.69
2018-12-16T12:44:20.883Z,100334.06
2018-12-16T12:46:54.804Z,100330.20
2018-12-16T12:49:25.337Z,100326.72
2018-12-16T12:51:59.355Z,100335.64
2018-12-16T12:54:31.060Z,100344.19
2018-12-16T12:57:04.522Z,100334.40
2018-12-16T12:59:36.186Z,100331.30
2018-12-16T13:02:12.331Z,100324.80
2018-12-16T13:04:43.302Z,100326.95
2018-12-16T13:07:15.391Z,100327.43
2018-12-16T13:09:51.858Z,100319.70
2018-12-16T13:12:25.818Z,100325.28
2018-12-16T13:14:58.740Z,100323.19
2018-12-16T13:17:32.007Z,100327.77
2018-12-16T13:20:03.334Z,100326.09
2018-12-16T13:22:34.588Z,100331.63
2018-12-16T13:25:23.932Z,100331.58
2018-12-16T13:27:55.336Z,100338.41
2018-12-16T13:30:27.444Z,100344.46
2018-12-16T13:33:00.871Z,100345.75
2018-12-16T13:35:39.181Z,100343.13
2018-12-16T13:38:15.486Z,100354.31
2018-12-16T13:40:48.583Z,100355.97
2018-12-16T13:43:24.593Z,100352.58
2018-12-16T13:45:57.931Z,100349.05
2018-12-16T13:48:29.771Z,100354.52
2018-12-16T13:51:05.420Z,100348.84
2018-12-16T13:53:36.018Z,100351.38
2018-12-16T13:56:10.346Z,100359.59
2018-12-16T13:58:42.914Z,100357.10
2018-12-16T14:01:17.400Z,100365.23
2018-12-16T14:03:50.931Z,100367.80
2018-12-16T14:06:21.945Z,100361.41
2018-12-16T14:08:56.109Z,100372.16
2018-12-16T14:11:28.558Z,100367.08
2018-12-16T14:14:02.241Z,100370.44
2018-12-16T14:16:37.693Z,100372.58
2018-12-16T14:19:10.564Z,100380.41
2018-12-16T14:21:43.311Z,100373.45
2018-12-16T14:24:15.721Z,100372.09
2018-12-16T14:26:47.388Z,100370.33
2018-12-16T14:29:21.532Z,100372.91
2018-12-16T14:31:56.937Z,100379.36
2018-12-16T14:34:30.587Z,100382.73
2018-12-16T14:37:02.562Z,100378.06
2018-12-16T14:39:36.423Z,100377.15
2018-12-16T14:42:07.622Z,100382.25
2018-12-16T14:44:39.652Z,100384.94
2018-12-16T14:47:10.584Z,100380.17
2018-12-16T14:49:45.102Z,100371.98
2018-12-16T14:52:19.830Z,100373.39
2018-12-16T14:54:53.968Z,100380.97
2018-12-16T14:57:27.682Z,100382.64
2018-12-16T15:00:02.542Z,100384.69
2018-12-16T15:02:34.024Z,100400.06
2018-12-16T15:05:09.138Z,100401.41
2018-12-16T15:07:41.464Z,100413.58
2018-12-16T15:10:16.637Z,100416.93
2018-12-16T15:12:48.175Z,100426.72
2018-12-16T15:15:19.764Z,100413.37
2018-12-16T15:17:53.394Z,100420.64
2018-12-16T15:20:25.778Z,100428.77
2018-12-16T15:22:57.919Z,100432.14
2018-12-16T15:25:27.760Z,100430.01
2018-12-16T15:28:00.020Z,100433.87
2018-12-16T15:30:31.771Z,100432.53
2018-12-16T15:33:03.165Z,100429.52
2018-12-16T15:35:34.320Z,100430.37
2018-12-16T15:38:05.168Z,100429.89
2018-12-16T15:40:36.632Z,100428.17
2018-12-16T15:43:08.062Z,100428.98
2018-12-16T15:45:41.661Z,100426.41
2018-12-16T15:48:13.125Z,100418.34
2018-12-16T15:50:48.309Z,100433.66
2018-12-16T15:53:19.179Z,100429.38
2018-12-16T15:55:48.840Z,100427.75
2018-12-16T15:58:18.783Z,100436.23
2018-12-16T16:00:50.134Z,100432.42
2018-12-16T16:03:21.340Z,100433.70
2018-12-16T16:05:52.131Z,100434.58
2018-12-16T16:08:26.882Z,100438.41
2018-12-16T16:10:58.137Z,100439.26
2018-12-16T16:13:27.823Z,100449.47
2018-12-16T16:15:59.179Z,100446.03
2018-12-16T16:18:30.656Z,100450.77
2018-12-16T16:21:01.605Z,100448.99
2018-12-16T16:23:36.036Z,100441.31
2018-12-16T16:26:16.172Z,100452.53
2018-12-16T16:28:47.789Z,100452.05
2018-12-16T16:31:19.495Z,100450.28
2018-12-16T16:33:51.786Z,100451.20
2018-12-16T16:36:22.897Z,100444.69
2018-12-16T16:38:54.361Z,100441.67
2018-12-16T16:41:24.210Z,100440.82
2018-12-16T16:43:57.624Z,100442.11
2018-12-16T16:46:30.697Z,100442.48
2018-12-16T16:49:02.976Z,100436.03
2018-12-16T16:51:37.115Z,100436.47
2018-12-16T16:54:08.369Z,100445.88
2018-12-16T16:56:42.814Z,100446.73
2018-12-16T16:59:19.425Z,100446.20
2018-12-16T17:01:50.935Z,100458.19
2018-12-16T17:04:25.366Z,100453.84
2018-12-16T17:07:00.705Z,100452.07
2018-12-16T17:09:34.003Z,100456.41
2018-12-16T17:12:09.268Z,100461.10
2018-12-16T17:14:40.226Z,100466.74
2018-12-16T17:17:11.824Z,100465.44
2018-12-16T17:19:46.846Z,100464.11
2018-12-16T17:22:18.816Z,100469.26
2018-12-16T17:24:48.976Z,100471.80
2018-12-16T17:27:19.740Z,100476.03
2018-12-16T17:29:49.459Z,100475.13
2018-12-16T17:32:19.223Z,100475.19
2018-12-16T17:34:49.171Z,100474.27
2018-12-16T17:37:21.594Z,100472.92
2018-12-16T17:39:51.411Z,100472.88
2018-12-16T17:42:21.339Z,100473.74
2018-12-16T17:44:50.931Z,100488.78
2018-12-16T17:47:21.822Z,100492.61
2018-12-16T17:49:51.466Z,100487.87
2018-12-16T17:52:21.678Z,100490.84
2018-12-16T17:54:51.303Z,100494.72
2018-12-16T17:57:20.936Z,100495.03
2018-12-16T17:59:53.580Z,100500.63
2018-12-16T18:02:23.601Z,100498.03
2018-12-16T18:04:53.219Z,100489.81
2018-12-16T18:07:22.871Z,100493.73
2018-12-16T18:09:52.464Z,100498.03
2018-12-16T18:12:23.635Z,100493.75
2018-12-16T18:14:53.314Z,100498.90
2018-12-16T18:17:22.923Z,100490.30
2018-12-16T18:19:52.501Z,100500.09
2018-12-16T18:22:22.361Z,100493.20
2018-12-16T18:24:53.243Z,100496.14
2018-12-16T18:27:25.112Z,100490.13
2018-12-16T18:29:54.976Z,100488.84
2018-12-16T18:32:24.596Z,100493.14
2018-12-16T18:35:00.429Z,100493.56
2018-12-16T18:37:30.352Z,100489.27
2018-12-16T18:40:00.062Z,100497.44
2018-12-16T18:42:33.250Z,100506.38
2018-12-16T18:45:03.234Z,100507.61
2018-12-16T18:47:34.177Z,100501.20
2018-12-16T18:50:07.978Z,100503.36
2018-12-16T18:52:39.147Z,100513.27
2018-12-16T18:55:11.338Z,100510.73
2018-12-16T18:57:45.076Z,100515.42
2018-12-16T19:00:16.110Z,100513.70
2018-12-16T19:02:52.234Z,100525.70
2018-12-16T19:05:25.284Z,100526.45
2018-12-16T19:07:56.728Z,100518.69
2018-12-16T19:10:33.454Z,100514.38
2018-12-16T19:13:08.387Z,100511.31
2018-12-16T19:15:43.681Z,100514.33
2018-12-16T19:18:14.851Z,100517.77
2018-12-16T19:20:45.922Z,100517.29
2018-12-16T19:23:19.931Z,100527.61
2018-12-16T19:25:53.495Z,100524.55
2018-12-16T19:28:24.567Z,100529.67
2018-12-16T19:30:57.938Z,100525.03
2018-12-16T19:33:30.468Z,100527.23
2018-12-16T19:36:02.725Z,100534.14
2018-12-16T19:38:33.016Z,100538.12
2018-12-16T19:41:03.882Z,100543.23
2018-12-16T19:43:37.075Z,100542.42
2018-12-16T19:46:10.233Z,100543.70
2018-12-16T19:48:43.806Z,100546.25
2018-12-16T19:51:16.063Z,100550.50
2018-12-16T19:53:49.119Z,100550.88
2018-12-16T19:56:19.853Z,100544.46
2018-12-16T19:58:52.438Z,100557.77
2018-12-16T20:01:23.771Z,100553.50
2018-12-16T20:03:59.629Z,100565.08
2018-12-16T20:06:37.410Z,100559.11
2018-12-16T20:09:11.938Z,100566.42
2018-12-16T20:11:44.064Z,100575.52
2018-12-16T20:14:17.565Z,100575.57
2018-12-16T20:16:50.983Z,100582.39
2018-12-16T20:19:22.330Z,100577.62
2018-12-16T20:21:51.981Z,100591.77
2018-12-16T20:24:22.560Z,100590.91
2018-12-16T20:26:53.443Z,100583.16
2018-12-16T20:29:24.020Z,100584.50
2018-12-16T20:31:55.248Z,100586.70
2018-12-16T20:34:25.881Z,100594.41
2018-12-16T20:36:57.313Z,100594.84
2018-12-16T20:39:28.520Z,100605.93
2018-12-16T20:42:00.578Z,100613.63
2018-12-16T20:44:31.720Z,100619.98
2018-12-16T20:47:01.598Z,100612.66
2018-12-16T20:49:31.745Z,100617.72
2018-12-16T20:52:01.468Z,100616.00
2018-12-16T20:54:34.275Z,100615.52
2018-12-16T20:57:07.170Z,100623.65
2018-12-16T20:59:37.380Z,100616.80
2018-12-16T21:02:09.390Z,100620.63
2018-12-16T21:04:39.567Z,100622.73
2018-12-16T21:07:09.838Z,100618.95
2018-12-16T21:09:39.958Z,100617.56
2018-12-16T21:12:18.567Z,100616.26
2018-12-16T21:14:54.004Z,100616.69
2018-12-16T21:17:29.854Z,100618.84
2018-12-16T21:20:02.588Z,100623.58
2018-12-16T21:22:34.666Z,100616.65
2018-12-16T21:25:06.983Z,100609.80
2018-12-16T21:27:40.363Z,100608.52
2018-12-16T21:30:12.567Z,100612.48
2018-12-16T21:32:42.396Z,100613.73
2018-12-16T21:35:12.296Z,100621.42
2018-12-16T21:37:41.958Z,100619.76
2018-12-16T21:40:17.907Z,100616.31
2018-12-16T21:42:47.583Z,100622.30
2018-12-16T21:45:17.399Z,100627.45
2018-12-16T21:47:46.988Z,100628.76
2018-12-16T21:50:17.651Z,100627.84
2018-12-16T21:52:47.320Z,100628.75
2018-12-16T21:55:18.815Z,100632.58
2018-12-16T21:57:48.526Z,100629.57
2018-12-16T22:00:20.082Z,100632.63
2018-12-16T22:02:49.732Z,100639.46
2018-12-16T22:08:04.090Z,100641.98
2018-12-16T22:10:33.833Z,100634.73
2018-12-16T22:13:04.472Z,100643.30
2018-12-16T22:15:34.112Z,100635.20
2018-12-16T22:18:05.398Z,100642.48
2018-12-16T22:20:35.121Z,100642.42
2018-12-16T22:23:08.491Z,100643.34
2018-12-16T22:25:40.554Z,100639.47
2018-12-16T22:28:10.329Z,100646.84
2018-12-16T22:30:39.932Z,100655.36
2018-12-16T22:33:09.539Z,100651.47
2018-12-16T22:35:39.148Z,100657.08
2018-12-16T22:38:08.751Z,100657.82
2018-12-16T22:40:38.406Z,100664.23
2018-12-16T22:43:08.120Z,100665.91
2018-12-16T22:45:37.808Z,100657.34
2018-12-16T22:48:07.458Z,100644.52
2018-12-16T22:50:37.159Z,100646.80
2018-12-16T22:53:07.391Z,100646.30
2018-12-16T22:55:38.520Z,100635.59
2018-12-16T22:58:08.113Z,100639.47
2018-12-16T23:03:30.089Z,100623.75
2018-12-16T23:06:02.259Z,100645.08
2018-12-16T23:08:31.920Z,100639.90
2018-12-16T23:11:01.537Z,100625.70
2018-12-16T23:13:31.145Z,100633.02
2018-12-16T23:16:03.403Z,100621.91
2018-12-16T23:18:33.135Z,100621.05
2018-12-16T23:21:03.692Z,100619.76
2018-12-16T23:23:34.669Z,100624.50
2018-12-16T23:26:05.515Z,100628.86
2018-12-16T23:28:36.002Z,100630.11
2018-12-16T23:31:08.927Z,100638.33
2018-12-16T23:33:38.521Z,100639.30
2018-12-16T23:36:08.969Z,100638.97
2018-12-16T23:38:38.552Z,100640.70
2018-12-16T23:41:08.562Z,100638.70
2018-12-16T23:43:41.985Z,100644.72
2018-12-16T23:46:11.673Z,100644.30
2018-12-16T23:48:41.331Z,100651.23
2018-12-16T23:51:11.129Z,100647.37
2018-12-16T23:53:41.773Z,100658.02
2018-12-16T23:56:11.358Z,100660.08
2018-12-16T23:58:42.626Z,100657.83
